Copen, West Virginia
Current Conditions -  °F | °C
As of 3:15 AM on Thursday 29 Jan 2015 (Local Time) from KW22 Reporting Station
Clear Clear  
Wind Chill: 19°   Ceiling: Unl
Heat Index: 19°   Visibility: NA
Dew Point: 12°   Wind: 0mph
Humidity: 74%   Direction: NA
Pressure: 30.15"   Gusts: NA
Location:  38.83°N, 80.73°W
Report Text: KW22 290815Z AUTO 00000KT CLR M07/M11 A3015 RMK AO2
Loading
Personal Weather Stations






























Interactive Weather Map New forecast layout! Learn more

10-Day Weather Forecast

Advertisements
Track Severe Weather on mobile